createdAt,value
2022-09-22T00:01:32.300Z,0.95
2022-09-22T00:04:03.632Z,1.20
2022-09-22T00:06:33.463Z,0.90
2022-09-22T00:09:03.152Z,0.77
2022-09-22T00:11:32.281Z,0.75
2022-09-22T00:14:03.762Z,0.68
2022-09-22T00:16:36.538Z,0.75
2022-09-22T00:19:06.905Z,0.85
2022-09-22T00:21:34.712Z,0.75
2022-09-22T00:24:03.498Z,1.08
2022-09-22T00:26:32.084Z,1.25
2022-09-22T00:29:01.560Z,0.80
2022-09-22T00:31:32.913Z,0.65
2022-09-22T00:34:00.738Z,0.90
2022-09-22T00:36:29.242Z,0.82
2022-09-22T00:38:58.367Z,0.60
2022-09-22T00:41:28.693Z,0.82
2022-09-22T00:44:28.666Z,0.60
2022-09-22T00:47:02.913Z,0.70
2022-09-22T00:49:38.363Z,0.40
2022-09-22T00:52:07.217Z,0.73
2022-09-22T00:54:35.634Z,0.95
2022-09-22T00:57:08.389Z,0.47
2022-09-22T00:59:37.092Z,1.17
2022-09-22T01:02:06.384Z,1.00
2022-09-22T01:04:34.788Z,0.47
2022-09-22T01:07:03.813Z,1.23
2022-09-22T01:09:33.156Z,0.68
2022-09-22T01:12:01.666Z,0.77
2022-09-22T01:14:43.060Z,0.63
2022-09-22T01:17:23.541Z,0.80
2022-09-22T01:20:35.095Z,0.85
2022-09-22T01:23:25.173Z,0.82
2022-09-22T01:26:19.662Z,0.88
2022-09-22T01:29:18.030Z,1.25
2022-09-22T01:31:53.674Z,1.13
2022-09-22T01:34:28.528Z,0.73
2022-09-22T01:37:04.220Z,0.63
2022-09-22T01:39:38.885Z,0.98
2022-09-22T01:42:11.410Z,0.57
2022-09-22T01:44:45.415Z,1.10
2022-09-22T01:47:20.148Z,0.75
2022-09-22T01:49:53.046Z,0.88
2022-09-22T01:52:24.788Z,0.70
2022-09-22T01:54:57.976Z,0.45
2022-09-22T01:57:31.793Z,0.80
2022-09-22T02:00:05.272Z,0.70
2022-09-22T02:05:09.932Z,0.77
2022-09-22T02:07:42.166Z,0.75
2022-09-22T02:10:13.792Z,0.70
2022-09-22T02:12:41.777Z,0.70
2022-09-22T02:15:31.094Z,1.20
2022-09-22T02:18:04.790Z,1.10
2022-09-22T02:20:34.055Z,1.17
2022-09-22T02:23:01.801Z,1.20
2022-09-22T02:25:30.229Z,1.30
2022-09-22T02:27:59.053Z,1.20
2022-09-22T02:30:28.110Z,1.10
2022-09-22T02:32:58.714Z,1.23
2022-09-22T02:35:31.288Z,1.08
2022-09-22T02:38:04.846Z,1.13
2022-09-22T02:40:40.483Z,1.40
2022-09-22T02:43:15.014Z,1.83
2022-09-22T02:45:52.104Z,1.20
2022-09-22T02:48:22.594Z,1.38
2022-09-22T02:50:52.452Z,2.35
2022-09-22T02:53:20.310Z,1.77
2022-09-22T02:55:49.089Z,1.70
2022-09-22T02:58:18.109Z,1.20
2022-09-22T03:00:46.396Z,1.48
2022-09-22T03:03:14.380Z,1.50
2022-09-22T03:05:42.053Z,1.52
2022-09-22T03:08:11.135Z,1.35
2022-09-22T03:10:38.847Z,1.45
2022-09-22T03:13:16.452Z,1.30
2022-09-22T03:15:45.347Z,1.13
2022-09-22T03:18:13.125Z,1.35
2022-09-22T03:20:40.852Z,1.05
2022-09-22T03:23:08.740Z,1.63
2022-09-22T03:25:37.770Z,1.33
2022-09-22T03:28:05.680Z,1.20
2022-09-22T03:30:35.744Z,1.13
2022-09-22T03:33:03.477Z,0.90
2022-09-22T03:35:31.446Z,1.30
2022-09-22T03:37:59.218Z,0.95
2022-09-22T03:40:27.104Z,1.17
2022-09-22T03:42:56.380Z,1.20
2022-09-22T03:45:24.083Z,0.85
2022-09-22T03:47:51.888Z,1.02
2022-09-22T03:50:19.665Z,0.90
2022-09-22T03:52:47.414Z,0.65
2022-09-22T03:55:15.141Z,1.30
2022-09-22T03:57:43.365Z,0.95
2022-09-22T04:00:15.052Z,0.70
2022-09-22T04:02:42.856Z,0.95
2022-09-22T04:05:11.387Z,1.30
2022-09-22T04:07:39.871Z,0.98
2022-09-22T04:10:08.981Z,1.23
2022-09-22T04:12:37.276Z,1.30
2022-09-22T04:15:06.263Z,1.38
2022-09-22T04:17:37.003Z,1.30
2022-09-22T04:20:05.905Z,1.63
2022-09-22T04:22:33.634Z,1.63
2022-09-22T04:25:01.534Z,1.45
2022-09-22T04:27:29.239Z,1.00
2022-09-22T04:29:57.325Z,1.77
2022-09-22T04:32:25.145Z,1.65
2022-09-22T04:34:54.166Z,1.20
2022-09-22T04:37:21.903Z,1.23
2022-09-22T04:39:50.341Z,1.25
2022-09-22T04:42:18.081Z,1.48
2022-09-22T04:44:46.110Z,1.20
2022-09-22T04:47:13.982Z,0.90
2022-09-22T04:49:41.645Z,1.52
2022-09-22T04:52:10.766Z,1.23
2022-09-22T04:54:38.450Z,1.77
2022-09-22T04:57:06.242Z,1.35
2022-09-22T04:59:35.293Z,1.08
2022-09-22T05:02:03.130Z,1.77
2022-09-22T05:04:30.810Z,1.15
2022-09-22T05:06:58.712Z,1.05
2022-09-22T05:09:28.148Z,0.90
2022-09-22T05:12:01.180Z,1.10
2022-09-22T05:14:29.081Z,1.20
2022-09-22T05:16:56.872Z,1.23
2022-09-22T05:19:24.717Z,1.10
2022-09-22T05:21:52.454Z,1.13
2022-09-22T05:24:20.166Z,1.05
2022-09-22T05:26:49.450Z,0.90
2022-09-22T05:29:18.304Z,1.30
2022-09-22T05:31:46.207Z,1.42
2022-09-22T05:34:13.937Z,1.30
2022-09-22T05:36:42.030Z,1.00
2022-09-22T05:39:09.765Z,1.45
2022-09-22T05:41:37.461Z,1.55
2022-09-22T05:44:06.673Z,1.25
2022-09-22T05:46:34.390Z,1.77
2022-09-22T05:49:02.149Z,1.92
2022-09-22T05:51:29.862Z,1.80
2022-09-22T05:53:57.763Z,1.10
2022-09-22T05:56:25.576Z,2.42
2022-09-22T05:58:53.298Z,1.50
2022-09-22T06:01:22.444Z,2.92
2022-09-22T06:03:50.250Z,1.42
2022-09-22T06:06:18.030Z,1.20
2022-09-22T06:08:48.989Z,1.60
2022-09-22T06:11:17.006Z,2.13
2022-09-22T06:13:44.661Z,2.17
2022-09-22T06:16:12.442Z,1.60
2022-09-22T06:18:41.562Z,1.80
2022-09-22T06:21:09.600Z,1.67
2022-09-22T06:23:42.031Z,2.20
2022-09-22T06:26:10.906Z,1.48
2022-09-22T06:28:38.655Z,1.77
2022-09-22T06:31:07.040Z,1.98
2022-09-22T06:33:35.553Z,1.52
2022-09-22T06:36:08.082Z,1.50
2022-09-22T06:38:35.858Z,1.43
2022-09-22T06:41:06.804Z,1.52
2022-09-22T06:43:37.867Z,1.92
2022-09-22T06:46:05.647Z,2.20
2022-09-22T06:48:33.495Z,1.73
2022-09-22T06:51:01.305Z,1.88
2022-09-22T06:53:30.403Z,1.90
2022-09-22T06:56:02.074Z,2.30
2022-09-22T06:58:38.595Z,1.83
2022-09-22T07:01:15.092Z,2.30
2022-09-22T07:03:43.172Z,2.10
2022-09-22T07:06:14.802Z,3.55
2022-09-22T07:08:47.930Z,2.65
2022-09-22T07:11:19.315Z,3.30
2022-09-22T07:13:47.058Z,3.28
2022-09-22T07:16:17.666Z,2.63
2022-09-22T07:18:48.804Z,2.88
2022-09-22T07:21:19.686Z,2.25
2022-09-22T07:23:49.927Z,1.92
2022-09-22T07:26:19.897Z,2.83
2022-09-22T07:28:50.338Z,1.90
2022-09-22T07:31:18.546Z,2.10
2022-09-22T07:33:47.473Z,2.78
2022-09-22T07:36:16.730Z,3.08
2022-09-22T07:38:49.373Z,1.95
2022-09-22T07:41:20.213Z,1.55
2022-09-22T07:43:51.157Z,2.17
2022-09-22T07:46:19.488Z,2.60
2022-09-22T07:48:47.847Z,2.13
2022-09-22T07:51:19.129Z,2.63
2022-09-22T07:53:48.813Z,2.08
2022-09-22T07:56:21.297Z,1.75
2022-09-22T07:58:51.198Z,1.67
2022-09-22T08:01:20.127Z,2.20
2022-09-22T08:03:47.933Z,2.40
2022-09-22T08:06:18.418Z,1.85
2022-09-22T08:08:48.319Z,2.35
2022-09-22T08:11:20.688Z,2.38
2022-09-22T08:13:52.595Z,1.55
2022-09-22T08:16:22.501Z,1.55
2022-09-22T08:18:51.325Z,1.45
2022-09-22T08:21:19.616Z,1.50
2022-09-22T08:23:49.071Z,1.33
2022-09-22T08:26:16.810Z,0.95
2022-09-22T08:28:46.657Z,2.10
2022-09-22T08:31:17.682Z,1.20
2022-09-22T08:33:45.488Z,1.70
2022-09-22T08:36:13.313Z,1.63
2022-09-22T08:38:42.042Z,2.75
2022-09-22T08:41:19.175Z,1.30
2022-09-22T08:43:55.203Z,1.70
2022-09-22T08:46:29.641Z,1.67
2022-09-22T08:49:34.054Z,1.20
2022-09-22T08:52:06.227Z,1.42
2022-09-22T08:54:35.350Z,1.13
2022-09-22T08:57:16.497Z,1.08
2022-09-22T08:59:53.499Z,1.38
2022-09-22T09:02:41.170Z,1.75
2022-09-22T09:05:30.126Z,1.30
2022-09-22T09:08:03.410Z,1.00
2022-09-22T09:13:28.638Z,1.30
2022-09-22T09:16:06.301Z,1.40
2022-09-22T09:18:37.892Z,1.35
2022-09-22T09:21:08.861Z,1.77
2022-09-22T09:26:35.439Z,1.20
2022-09-22T09:29:09.191Z,1.33
2022-09-22T09:31:43.976Z,1.48
2022-09-22T09:34:17.769Z,1.55
2022-09-22T09:36:52.769Z,1.42
2022-09-22T09:39:28.413Z,1.42
2022-09-22T09:41:57.632Z,1.20
2022-09-22T09:44:30.369Z,1.20
2022-09-22T09:47:06.551Z,1.23
2022-09-22T09:49:34.546Z,1.25
2022-09-22T09:52:05.158Z,1.33
2022-09-22T09:54:32.945Z,1.05
2022-09-22T09:57:07.836Z,1.25
2022-09-22T09:59:50.265Z,1.52
2022-09-22T10:02:22.481Z,1.17
2022-09-22T10:04:52.832Z,1.23
2022-09-22T10:07:24.572Z,1.65
2022-09-22T10:09:53.902Z,1.30
2022-09-22T10:12:24.456Z,0.98
2022-09-22T10:14:54.424Z,1.05
2022-09-22T10:17:25.807Z,1.33
2022-09-22T10:19:54.021Z,1.05
2022-09-22T10:22:27.524Z,1.35
2022-09-22T10:24:58.581Z,1.40
2022-09-22T10:27:28.415Z,0.80
2022-09-22T10:30:22.992Z,0.77
2022-09-22T10:33:12.224Z,0.98
2022-09-22T10:35:41.373Z,0.88
2022-09-22T10:38:15.764Z,1.20
2022-09-22T10:40:47.452Z,0.70
2022-09-22T10:43:31.225Z,0.82
2022-09-22T10:46:26.361Z,0.68
2022-09-22T10:49:03.897Z,1.02
2022-09-22T10:51:43.036Z,0.82
2022-09-22T10:54:24.545Z,1.15
2022-09-22T10:56:55.707Z,0.80
2022-09-22T10:59:45.500Z,0.70
2022-09-22T11:02:35.600Z,0.60
2022-09-22T11:05:45.043Z,0.43
2022-09-22T11:08:32.685Z,1.30
2022-09-22T11:11:23.938Z,1.13
2022-09-22T11:14:05.962Z,0.80
2022-09-22T11:16:57.901Z,0.85
2022-09-22T11:19:47.467Z,1.13
2022-09-22T11:22:39.263Z,1.27
2022-09-22T11:25:21.304Z,0.73
2022-09-22T11:28:00.910Z,0.98
2022-09-22T11:30:34.715Z,1.00
2022-09-22T11:33:19.042Z,1.23
2022-09-22T11:36:20.732Z,1.45
2022-09-22T11:39:14.861Z,1.10
2022-09-22T11:41:48.810Z,0.70
2022-09-22T11:44:33.392Z,1.60
2022-09-22T11:47:27.508Z,1.85
2022-09-22T11:50:22.691Z,1.50
2022-09-22T11:53:06.870Z,1.15
2022-09-22T11:55:43.445Z,1.20
2022-09-22T11:58:16.885Z,1.20
2022-09-22T12:00:48.204Z,2.03
2022-09-22T12:03:21.311Z,0.85
2022-09-22T12:05:54.307Z,0.80
2022-09-22T12:08:24.129Z,0.85
2022-09-22T12:10:53.969Z,0.93
2022-09-22T12:13:25.486Z,1.00
2022-09-22T12:16:05.826Z,1.35
2022-09-22T12:18:44.817Z,1.23
2022-09-22T12:21:28.988Z,1.00
2022-09-22T12:24:00.973Z,0.93
2022-09-22T12:26:32.296Z,0.65
2022-09-22T12:29:01.833Z,0.80
2022-09-22T12:31:37.804Z,0.80
2022-09-22T12:34:16.560Z,0.77
2022-09-22T12:36:44.306Z,1.13
2022-09-22T12:39:18.101Z,0.93
2022-09-22T12:41:49.794Z,0.80
2022-09-22T12:44:22.058Z,0.93
2022-09-22T12:46:51.203Z,0.60
2022-09-22T12:49:23.441Z,0.52
2022-09-22T12:51:52.019Z,0.80
2022-09-22T12:54:39.383Z,0.50
2022-09-22T12:57:28.129Z,0.85
2022-09-22T12:59:59.708Z,0.80
2022-09-22T13:02:32.413Z,1.15
2022-09-22T13:05:35.244Z,1.10
2022-09-22T13:08:03.314Z,0.80
2022-09-22T13:10:42.438Z,0.60
2022-09-22T13:13:20.753Z,0.80
2022-09-22T13:15:59.472Z,0.88
2022-09-22T13:18:32.761Z,0.70
2022-09-22T13:21:01.942Z,0.80
2022-09-22T13:23:30.679Z,1.25
2022-09-22T13:26:08.721Z,1.10
2022-09-22T13:28:37.736Z,1.00
2022-09-22T13:31:13.248Z,1.08
2022-09-22T13:33:41.093Z,0.85
2022-09-22T13:36:13.290Z,0.82
2022-09-22T13:38:43.526Z,0.70
2022-09-22T13:41:13.608Z,0.60
2022-09-22T13:43:45.863Z,0.82
2022-09-22T13:46:22.218Z,0.75
2022-09-22T13:48:51.963Z,0.88
2022-09-22T13:51:19.956Z,1.10
2022-09-22T13:53:52.633Z,0.70
2022-09-22T13:56:23.404Z,1.10
2022-09-22T13:58:57.327Z,0.95
2022-09-22T14:01:28.304Z,0.80
2022-09-22T14:03:57.456Z,1.23
2022-09-22T14:06:28.121Z,1.70
2022-09-22T14:08:56.878Z,1.63
2022-09-22T14:11:26.559Z,0.98
2022-09-22T14:14:01.496Z,0.70
2022-09-22T14:16:34.764Z,1.08
2022-09-22T14:19:06.518Z,0.88
2022-09-22T14:21:41.410Z,0.80
2022-09-22T14:24:13.236Z,0.82
2022-09-22T14:26:46.736Z,0.65
2022-09-22T14:29:20.317Z,1.10
2022-09-22T14:31:52.607Z,0.70
2022-09-22T14:34:26.593Z,0.73
2022-09-22T14:36:56.212Z,1.20
2022-09-22T14:39:31.832Z,0.85
2022-09-22T14:42:08.876Z,1.00
2022-09-22T14:44:46.073Z,0.52
2022-09-22T14:47:25.729Z,0.95
2022-09-22T14:50:18.753Z,0.75
2022-09-22T14:52:58.377Z,1.08
2022-09-22T14:55:34.244Z,0.88
2022-09-22T14:58:05.390Z,1.08
2022-09-22T15:00:52.778Z,0.85
2022-09-22T15:03:27.634Z,0.57
2022-09-22T15:05:56.104Z,0.35
2022-09-22T15:08:27.783Z,0.60
2022-09-22T15:10:57.380Z,0.80
2022-09-22T15:13:38.370Z,0.68
2022-09-22T15:16:28.123Z,0.75
2022-09-22T15:18:56.007Z,0.60
2022-09-22T15:21:29.074Z,0.70
2022-09-22T15:24:00.590Z,0.40
2022-09-22T15:26:32.785Z,0.60
2022-09-22T15:29:01.540Z,0.82
2022-09-22T15:31:31.184Z,0.70
2022-09-22T15:34:01.465Z,0.60
2022-09-22T15:36:31.935Z,0.60
2022-09-22T15:39:01.958Z,0.70
2022-09-22T15:41:29.608Z,0.63
2022-09-22T15:43:57.722Z,0.68
2022-09-22T15:46:33.954Z,0.70
2022-09-22T15:49:05.533Z,0.68
2022-09-22T15:51:33.383Z,0.52
2022-09-22T15:54:01.484Z,0.55
2022-09-22T15:56:30.058Z,0.50
2022-09-22T15:59:01.145Z,0.80
2022-09-22T16:01:30.472Z,0.55
2022-09-22T16:04:00.210Z,0.63
2022-09-22T16:06:28.434Z,0.90
2022-09-22T16:08:56.355Z,0.77
2022-09-22T16:11:29.305Z,0.52
2022-09-22T16:16:31.087Z,0.68
2022-09-22T16:18:59.572Z,0.50
2022-09-22T16:21:29.266Z,0.45
2022-09-22T16:24:03.389Z,0.70
2022-09-22T16:26:33.400Z,0.52
2022-09-22T16:29:01.812Z,0.60
2022-09-22T16:31:31.163Z,0.73
2022-09-22T16:34:00.804Z,0.80
2022-09-22T16:36:31.038Z,0.50
2022-09-22T16:38:58.741Z,0.98
2022-09-22T16:41:27.946Z,1.10
2022-09-22T16:43:57.458Z,1.50
2022-09-22T16:46:30.030Z,1.63
2022-09-22T16:49:04.000Z,1.00
2022-09-22T16:51:35.443Z,1.13
2022-09-22T16:54:04.299Z,1.15
2022-09-22T16:56:33.852Z,0.82
2022-09-22T16:59:03.087Z,0.70
2022-09-22T17:01:32.366Z,0.70
2022-09-22T17:04:01.744Z,0.77
2022-09-22T17:06:29.693Z,1.67
2022-09-22T17:08:59.326Z,1.50
2022-09-22T17:11:30.079Z,0.95
2022-09-22T17:14:01.297Z,0.80
2022-09-22T17:16:30.774Z,0.60
2022-09-22T17:19:03.150Z,0.50
2022-09-22T17:21:34.223Z,0.85
2022-09-22T17:24:03.640Z,0.50
2022-09-22T17:26:33.350Z,0.70
2022-09-22T17:29:01.497Z,0.77
2022-09-22T17:31:31.064Z,0.70
2022-09-22T17:33:59.390Z,0.88
2022-09-22T17:36:29.802Z,0.77
2022-09-22T17:38:59.586Z,0.82
2022-09-22T17:41:32.591Z,0.90
2022-09-22T17:44:02.976Z,1.42
2022-09-22T17:46:32.218Z,0.80
2022-09-22T17:49:17.845Z,0.98
2022-09-22T17:52:06.427Z,0.90
2022-09-22T17:54:54.213Z,0.70
2022-09-22T17:57:23.695Z,0.88
2022-09-22T17:59:51.660Z,0.50
2022-09-22T18:02:21.506Z,0.57
2022-09-22T18:04:49.742Z,0.93
2022-09-22T18:07:20.867Z,0.55
2022-09-22T18:09:50.185Z,0.90
2022-09-22T18:12:20.297Z,0.70
2022-09-22T18:14:50.004Z,1.00
2022-09-22T18:17:20.300Z,0.30
2022-09-22T18:19:47.993Z,0.88
2022-09-22T18:22:21.046Z,0.82
2022-09-22T18:27:19.581Z,1.05
2022-09-22T18:29:49.934Z,0.88
2022-09-22T18:32:19.651Z,0.68
2022-09-22T18:34:47.976Z,1.17
2022-09-22T18:37:16.205Z,0.70
2022-09-22T18:39:45.595Z,0.85
2022-09-22T18:42:14.294Z,0.50
2022-09-22T18:44:42.289Z,1.23
2022-09-22T18:47:12.979Z,0.65
2022-09-22T18:49:40.819Z,0.75
2022-09-22T18:52:09.877Z,0.65
2022-09-22T18:54:39.345Z,0.98
2022-09-22T18:57:10.509Z,0.80
2022-09-22T18:59:38.189Z,0.80
2022-09-22T19:02:10.734Z,0.90
2022-09-22T19:04:39.843Z,0.70
2022-09-22T19:07:24.879Z,0.95
2022-09-22T19:09:52.842Z,0.52
2022-09-22T19:12:22.289Z,1.02
2022-09-22T19:14:50.029Z,1.17
2022-09-22T19:17:19.734Z,0.70
2022-09-22T19:19:49.838Z,1.02
2022-09-22T19:22:17.770Z,0.80
2022-09-22T19:24:46.018Z,0.73
2022-09-22T19:27:15.896Z,0.60
2022-09-22T19:29:44.940Z,0.65
2022-09-22T19:32:12.752Z,0.82
2022-09-22T19:34:40.450Z,0.70
2022-09-22T19:37:08.262Z,0.93
2022-09-22T19:39:36.010Z,1.23
2022-09-22T19:42:03.680Z,0.73
2022-09-22T19:44:32.374Z,0.73
2022-09-22T19:47:01.437Z,1.20
2022-09-22T19:49:29.759Z,0.80
2022-09-22T19:51:57.508Z,0.80
2022-09-22T19:54:25.193Z,0.98
2022-09-22T19:56:52.909Z,0.90
2022-09-22T19:59:20.634Z,1.30
2022-09-22T20:01:48.808Z,1.85
2022-09-22T20:04:20.614Z,1.38
2022-09-22T20:06:48.818Z,1.02
2022-09-22T20:09:17.219Z,1.35
2022-09-22T20:11:47.102Z,1.27
2022-09-22T20:14:22.406Z,1.15
2022-09-22T20:16:51.983Z,0.70
2022-09-22T20:19:21.799Z,1.05
2022-09-22T20:21:51.404Z,1.15
2022-09-22T20:24:21.790Z,0.77
2022-09-22T20:26:49.859Z,1.10
2022-09-22T20:29:18.285Z,0.80
2022-09-22T20:31:46.020Z,0.63
2022-09-22T20:34:15.752Z,1.17
2022-09-22T20:36:45.001Z,0.95
2022-09-22T20:39:14.936Z,0.63
2022-09-22T20:41:43.777Z,1.58
2022-09-22T20:44:13.885Z,0.90
2022-09-22T20:46:42.503Z,1.20
2022-09-22T20:49:13.717Z,0.90
2022-09-22T20:51:41.562Z,1.15
2022-09-22T20:54:10.861Z,1.33
2022-09-22T20:56:42.687Z,1.50
2022-09-22T20:59:10.819Z,1.23
2022-09-22T21:01:38.614Z,1.60
2022-09-22T21:04:06.427Z,1.38
2022-09-22T21:06:34.625Z,1.48
2022-09-22T21:09:19.825Z,1.60
2022-09-22T21:11:48.912Z,1.27
2022-09-22T21:14:16.706Z,1.35
2022-09-22T21:16:45.026Z,1.60
2022-09-22T21:19:13.367Z,1.67
2022-09-22T21:21:41.288Z,2.17
2022-09-22T21:24:09.602Z,1.35
2022-09-22T21:26:37.362Z,1.83
2022-09-22T21:29:06.411Z,1.20
2022-09-22T21:31:34.998Z,1.63
2022-09-22T21:34:02.712Z,1.77
2022-09-22T21:36:31.007Z,1.70
2022-09-22T21:39:00.712Z,1.35
2022-09-22T21:41:31.240Z,1.40
2022-09-22T21:43:59.927Z,1.67
2022-09-22T21:46:30.515Z,2.00
2022-09-22T21:49:01.569Z,1.40
2022-09-22T21:51:34.179Z,1.38
2022-09-22T21:54:02.940Z,1.43
2022-09-22T21:56:32.845Z,1.50
2022-09-22T21:59:03.212Z,1.10
2022-09-22T22:01:34.229Z,1.60
2022-09-22T22:04:03.577Z,1.23
2022-09-22T22:06:33.077Z,1.30
2022-09-22T22:09:04.085Z,1.48
2022-09-22T22:11:34.762Z,1.35
2022-09-22T22:14:04.067Z,1.50
2022-09-22T22:16:34.913Z,1.70
2022-09-22T22:19:03.036Z,1.73
2022-09-22T22:21:31.921Z,1.45
2022-09-22T22:24:20.994Z,1.40
2022-09-22T22:26:51.400Z,1.77
2022-09-22T22:29:19.530Z,1.55
2022-09-22T22:31:49.985Z,1.92
2022-09-22T22:34:19.793Z,1.23
2022-09-22T22:36:48.618Z,1.60
2022-09-22T22:39:16.601Z,1.33
2022-09-22T22:41:44.495Z,1.77
2022-09-22T22:44:12.910Z,1.17
2022-09-22T22:46:40.735Z,1.90
2022-09-22T22:49:11.494Z,1.50
2022-09-22T22:51:42.765Z,1.27
2022-09-22T22:54:11.663Z,1.48
2022-09-22T22:56:42.520Z,1.52
2022-09-22T22:59:11.754Z,1.85
2022-09-22T23:01:40.406Z,1.40
2022-09-22T23:04:12.043Z,1.65
2022-09-22T23:06:43.739Z,1.40
2022-09-22T23:09:14.182Z,1.08
2022-09-22T23:11:43.825Z,1.63
2022-09-22T23:14:13.296Z,1.23
2022-09-22T23:16:44.161Z,1.40
2022-09-22T23:19:14.826Z,0.95
2022-09-22T23:21:42.655Z,1.30
2022-09-22T23:24:10.973Z,1.58
2022-09-22T23:26:38.654Z,1.50
2022-09-22T23:29:06.746Z,1.88
2022-09-22T23:31:34.666Z,1.70
2022-09-22T23:34:02.542Z,1.67
2022-09-22T23:36:31.574Z,1.63
2022-09-22T23:39:03.788Z,1.13
2022-09-22T23:41:33.014Z,2.08
2022-09-22T23:44:00.966Z,2.00
2022-09-22T23:46:28.981Z,3.03
2022-09-22T23:48:56.759Z,1.45
2022-09-22T23:51:24.897Z,1.45
2022-09-22T23:53:53.949Z,1.27
2022-09-22T23:56:21.649Z,1.48
2022-09-22T23:58:49.745Z,1.30
